sensor_id;sensor_type;location;lat;lon;timestamp;temperature;humidity
31521;DHT22;18130;50.864;4.346;2023-04-03T09:35:50;14.80;85.50
31521;DHT22;18130;50.864;4.346;2023-04-03T09:38:20;10.00;93.30
31521;DHT22;18130;50.864;4.346;2023-04-03T09:43:30;9.80;92.90
31521;DHT22;18130;50.864;4.346;2023-04-03T09:46:16;9.50;93.00
31521;DHT22;18130;50.864;4.346;2023-04-03T09:48:51;9.40;93.00
31521;DHT22;18130;50.864;4.346;2023-04-03T09:51:17;9.50;93.20
31521;DHT22;18130;50.864;4.346;2023-04-03T09:53:44;9.40;93.30
31521;DHT22;18130;50.864;4.346;2023-04-03T09:58:44;9.60;93.30
31521;DHT22;18130;50.864;4.346;2023-04-03T10:01:29;9.60;92.90
31521;DHT22;18130;50.864;4.346;2023-04-03T10:06:41;9.60;92.30
31521;DHT22;18130;50.864;4.346;2023-04-03T10:09:29;9.70;92.60
31521;DHT22;18130;50.864;4.346;2023-04-03T10:12:09;9.70;92.30
31521;DHT22;18130;50.864;4.346;2023-04-03T10:15:00;9.70;92.00
31521;DHT22;18130;50.864;4.346;2023-04-03T10:27:55;9.80;91.90
31521;DHT22;18130;50.864;4.346;2023-04-03T10:47:16;10.10;87.20
31521;DHT22;18130;50.864;4.346;2023-04-03T10:50:26;10.00;87.50
31521;DHT22;18130;50.864;4.346;2023-04-03T10:55:53;10.10;87.00
31521;DHT22;18130;50.864;4.346;2023-04-03T10:58:31;10.00;87.20
31521;DHT22;18130;50.864;4.346;2023-04-03T11:01:13;10.00;85.50
31521;DHT22;18130;50.864;4.346;2023-04-03T11:03:43;9.90;85.90
31521;DHT22;18130;50.864;4.346;2023-04-03T11:06:13;9.90;85.00
31521;DHT22;18130;50.864;4.346;2023-04-03T11:09:18;10.00;84.10
31521;DHT22;18130;50.864;4.346;2023-04-03T11:11:45;10.00;84.80
31521;DHT22;18130;50.864;4.346;2023-04-03T11:14:33;10.00;85.50
31521;DHT22;18130;50.864;4.346;2023-04-03T11:20:04;10.20;83.10
31521;DHT22;18130;50.864;4.346;2023-04-03T11:22:43;10.20;84.10
31521;DHT22;18130;50.864;4.346;2023-04-03T11:27:54;10.50;83.50
31521;DHT22;18130;50.864;4.346;2023-04-03T11:33:43;11.20;80.60
31521;DHT22;18130;50.864;4.346;2023-04-03T11:36:26;11.50;75.00
31521;DHT22;18130;50.864;4.346;2023-04-03T11:38:56;11.60;75.40
31521;DHT22;18130;50.864;4.346;2023-04-03T11:41:31;12.00;74.20
31521;DHT22;18130;50.864;4.346;2023-04-03T11:47:01;12.70;73.10
31521;DHT22;18130;50.864;4.346;2023-04-03T12:05:57;13.40;66.50
31521;DHT22;18130;50.864;4.346;2023-04-03T12:08:45;13.60;67.10
31521;DHT22;18130;50.864;4.346;2023-04-03T12:16:47;14.80;63.40
31521;DHT22;18130;50.864;4.346;2023-04-03T12:24:26;15.40;63.70
31521;DHT22;18130;50.864;4.346;2023-04-03T12:29:26;14.70;60.90
31521;DHT22;18130;50.864;4.346;2023-04-03T12:45:50;14.20;60.90
31521;DHT22;18130;50.864;4.346;2023-04-03T12:48:22;14.50;60.20
31521;DHT22;18130;50.864;4.346;2023-04-03T12:50:50;14.10;61.30
31521;DHT22;18130;50.864;4.346;2023-04-03T12:53:33;14.80;61.20
31521;DHT22;18130;50.864;4.346;2023-04-03T12:56:27;14.90;60.20
31521;DHT22;18130;50.864;4.346;2023-04-03T12:58:56;15.90;59.60
31521;DHT22;18130;50.864;4.346;2023-04-03T13:01:37;16.60;59.00
31521;DHT22;18130;50.864;4.346;2023-04-03T13:04:03;16.40;59.50
31521;DHT22;18130;50.864;4.346;2023-04-03T13:06:41;17.10;58.90
31521;DHT22;18130;50.864;4.346;2023-04-03T13:09:23;17.50;58.60
31521;DHT22;18130;50.864;4.346;2023-04-03T13:11:51;17.80;57.70
31521;DHT22;18130;50.864;4.346;2023-04-03T13:14:19;16.00;57.60
31521;DHT22;18130;50.864;4.346;2023-04-03T13:17:12;15.80;58.40
31521;DHT22;18130;50.864;4.346;2023-04-03T13:19:39;15.40;59.70
31521;DHT22;18130;50.864;4.346;2023-04-03T13:22:34;15.80;60.00
31521;DHT22;18130;50.864;4.346;2023-04-03T13:25:07;16.50;58.70
31521;DHT22;18130;50.864;4.346;2023-04-03T13:27:34;17.30;59.20
31521;DHT22;18130;50.864;4.346;2023-04-03T13:30:04;16.60;59.20
31521;DHT22;18130;50.864;4.346;2023-04-03T13:32:31;17.60;57.50
31521;DHT22;18130;50.864;4.346;2023-04-03T13:34:58;16.70;57.60
31521;DHT22;18130;50.864;4.346;2023-04-03T13:37:30;17.90;56.50
31521;DHT22;18130;50.864;4.346;2023-04-03T13:40:08;17.90;56.50
31521;DHT22;18130;50.864;4.346;2023-04-03T13:42:38;18.50;56.40
31521;DHT22;18130;50.864;4.346;2023-04-03T13:45:26;19.10;55.00
31521;DHT22;18130;50.864;4.346;2023-04-03T13:48:08;17.80;56.60
31521;DHT22;18130;50.864;4.346;2023-04-03T13:50:54;19.00;56.50
31521;DHT22;18130;50.864;4.346;2023-04-03T13:53:20;19.80;55.10
31521;DHT22;18130;50.864;4.346;2023-04-03T13:58:29;19.00;53.60
31521;DHT22;18130;50.864;4.346;2023-04-03T14:01:17;18.70;55.40
31521;DHT22;18130;50.864;4.346;2023-04-03T14:06:14;19.40;54.70
31521;DHT22;18130;50.864;4.346;2023-04-03T14:08:44;18.10;55.00
31521;DHT22;18130;50.864;4.346;2023-04-03T14:11:19;17.30;56.00
31521;DHT22;18130;50.864;4.346;2023-04-03T14:13:47;17.80;57.20
31521;DHT22;18130;50.864;4.346;2023-04-03T14:16:19;17.60;55.20
31521;DHT22;18130;50.864;4.346;2023-04-03T14:18:46;17.80;56.40
31521;DHT22;18130;50.864;4.346;2023-04-03T14:21:14;19.20;55.30
31521;DHT22;18130;50.864;4.346;2023-04-03T14:23:40;18.20;54.70
31521;DHT22;18130;50.864;4.346;2023-04-03T14:26:12;17.80;55.20
31521;DHT22;18130;50.864;4.346;2023-04-03T14:28:44;20.00;53.90
31521;DHT22;18130;50.864;4.346;2023-04-03T14:31:12;18.50;53.70
31521;DHT22;18130;50.864;4.346;2023-04-03T14:33:38;18.10;55.50
31521;DHT22;18130;50.864;4.346;2023-04-03T14:36:22;16.90;56.30
31521;DHT22;18130;50.864;4.346;2023-04-03T14:38:49;18.50;56.10
31521;DHT22;18130;50.864;4.346;2023-04-03T14:41:18;18.50;54.40
31521;DHT22;18130;50.864;4.346;2023-04-03T14:43:45;19.90;55.10
31521;DHT22;18130;50.864;4.346;2023-04-03T14:46:15;20.60;53.30
31521;DHT22;18130;50.864;4.346;2023-04-03T14:48:41;19.40;53.80
31521;DHT22;18130;50.864;4.346;2023-04-03T14:51:08;19.30;53.10
31521;DHT22;18130;50.864;4.346;2023-04-03T14:53:35;20.00;53.30
31521;DHT22;18130;50.864;4.346;2023-04-03T14:56:04;20.20;51.60
31521;DHT22;18130;50.864;4.346;2023-04-03T14:58:30;21.50;51.80
31521;DHT22;18130;50.864;4.346;2023-04-03T15:00:57;18.90;52.00
31521;DHT22;18130;50.864;4.346;2023-04-03T15:03:23;19.60;53.00
31521;DHT22;18130;50.864;4.346;2023-04-03T15:05:49;19.40;51.50
31521;DHT22;18130;50.864;4.346;2023-04-03T15:08:26;19.50;52.40
31521;DHT22;18130;50.864;4.346;2023-04-03T15:10:55;19.80;52.70
31521;DHT22;18130;50.864;4.346;2023-04-03T15:13:22;18.40;52.50
31521;DHT22;18130;50.864;4.346;2023-04-03T15:15:49;18.40;52.20
31521;DHT22;18130;50.864;4.346;2023-04-03T15:18:19;18.20;53.40
31521;DHT22;18130;50.864;4.346;2023-04-03T15:20:45;19.70;52.60
31521;DHT22;18130;50.864;4.346;2023-04-03T15:23:13;18.30;53.40
31521;DHT22;18130;50.864;4.346;2023-04-03T15:25:42;18.20;52.90
31521;DHT22;18130;50.864;4.346;2023-04-03T15:28:22;17.30;54.70
31521;DHT22;18130;50.864;4.346;2023-04-03T15:30:48;15.50;56.80
31521;DHT22;18130;50.864;4.346;2023-04-03T15:33:15;14.60;59.20
31521;DHT22;18130;50.864;4.346;2023-04-03T15:35:41;13.90;60.80
31521;DHT22;18130;50.864;4.346;2023-04-03T15:38:07;12.90;61.50
31521;DHT22;18130;50.864;4.346;2023-04-03T15:40:33;12.90;63.40
31521;DHT22;18130;50.864;4.346;2023-04-03T15:42:58;12.70;63.70
31521;DHT22;18130;50.864;4.346;2023-04-03T15:45:24;12.10;64.40
31521;DHT22;18130;50.864;4.346;2023-04-03T15:47:51;11.90;64.10
31521;DHT22;18130;50.864;4.346;2023-04-03T15:50:16;11.90;64.00
31521;DHT22;18130;50.864;4.346;2023-04-03T15:52:42;11.70;64.50
31521;DHT22;18130;50.864;4.346;2023-04-03T15:55:09;11.60;65.80
31521;DHT22;18130;50.864;4.346;2023-04-03T15:57:34;11.80;65.70
31521;DHT22;18130;50.864;4.346;2023-04-03T16:00:00;11.70;65.20
31521;DHT22;18130;50.864;4.346;2023-04-03T16:02:26;11.60;66.20
31521;DHT22;18130;50.864;4.346;2023-04-03T16:04:54;11.80;67.30
31521;DHT22;18130;50.864;4.346;2023-04-03T16:07:20;11.70;68.20
31521;DHT22;18130;50.864;4.346;2023-04-03T16:09:46;11.70;68.70
31521;DHT22;18130;50.864;4.346;2023-04-03T16:12:12;11.50;69.10
31521;DHT22;18130;50.864;4.346;2023-04-03T16:14:37;11.40;68.70
31521;DHT22;18130;50.864;4.346;2023-04-03T16:17:03;11.20;69.40
31521;DHT22;18130;50.864;4.346;2023-04-03T16:19:29;11.20;69.70
31521;DHT22;18130;50.864;4.346;2023-04-03T16:21:56;11.30;70.00
31521;DHT22;18130;50.864;4.346;2023-04-03T16:24:22;11.40;69.90
31521;DHT22;18130;50.864;4.346;2023-04-03T16:26:48;11.40;70.90
31521;DHT22;18130;50.864;4.346;2023-04-03T16:29:13;11.40;70.80
31521;DHT22;18130;50.864;4.346;2023-04-03T16:31:39;11.40;70.60
31521;DHT22;18130;50.864;4.346;2023-04-03T16:34:05;11.50;70.60
31521;DHT22;18130;50.864;4.346;2023-04-03T16:36:31;11.40;70.50
31521;DHT22;18130;50.864;4.346;2023-04-03T16:38:57;11.10;70.60
31521;DHT22;18130;50.864;4.346;2023-04-03T16:41:22;11.00;71.40
31521;DHT22;18130;50.864;4.346;2023-04-03T16:43:48;10.90;71.40
31521;DHT22;18130;50.864;4.346;2023-04-03T16:46:15;11.00;71.80
31521;DHT22;18130;50.864;4.346;2023-04-03T16:48:40;11.10;71.30
31521;DHT22;18130;50.864;4.346;2023-04-03T16:51:06;10.80;71.90
31521;DHT22;18130;50.864;4.346;2023-04-03T16:53:32;10.90;73.60
31521;DHT22;18130;50.864;4.346;2023-04-03T16:55:58;10.90;73.90
31521;DHT22;18130;50.864;4.346;2023-04-03T16:58:24;10.70;72.60
31521;DHT22;18130;50.864;4.346;2023-04-03T17:00:50;10.80;74.00
31521;DHT22;18130;50.864;4.346;2023-04-03T17:03:16;10.90;74.50
31521;DHT22;18130;50.864;4.346;2023-04-03T17:05:42;10.90;74.10
31521;DHT22;18130;50.864;4.346;2023-04-03T17:08:09;10.70;74.70
31521;DHT22;18130;50.864;4.346;2023-04-03T17:10:35;10.70;75.60
31521;DHT22;18130;50.864;4.346;2023-04-03T17:13:01;10.70;75.20
31521;DHT22;18130;50.864;4.346;2023-04-03T17:15:26;10.70;75.30
31521;DHT22;18130;50.864;4.346;2023-04-03T17:17:53;10.50;74.60
31521;DHT22;18130;50.864;4.346;2023-04-03T17:20:19;10.50;75.80
31521;DHT22;18130;50.864;4.346;2023-04-03T17:22:45;10.40;74.80
31521;DHT22;18130;50.864;4.346;2023-04-03T17:25:11;10.30;75.40
31521;DHT22;18130;50.864;4.346;2023-04-03T17:27:37;10.40;75.20
31521;DHT22;18130;50.864;4.346;2023-04-03T17:30:04;10.50;75.70
31521;DHT22;18130;50.864;4.346;2023-04-03T17:32:30;10.30;74.70
31521;DHT22;18130;50.864;4.346;2023-04-03T17:34:56;10.20;75.50
31521;DHT22;18130;50.864;4.346;2023-04-03T17:37:21;10.20;76.90
31521;DHT22;18130;50.864;4.346;2023-04-03T17:39:47;10.20;76.20
31521;DHT22;18130;50.864;4.346;2023-04-03T17:42:13;10.10;76.60
31521;DHT22;18130;50.864;4.346;2023-04-03T17:44:38;9.90;76.90
31521;DHT22;18130;50.864;4.346;2023-04-03T17:47:04;9.80;77.70
31521;DHT22;18130;50.864;4.346;2023-04-03T17:49:30;9.80;78.50
31521;DHT22;18130;50.864;4.346;2023-04-03T17:51:57;9.80;78.60
31521;DHT22;18130;50.864;4.346;2023-04-03T17:54:23;9.70;79.00
31521;DHT22;18130;50.864;4.346;2023-04-03T17:56:49;9.70;79.40
31521;DHT22;18130;50.864;4.346;2023-04-03T17:59:16;9.60;79.40
31521;DHT22;18130;50.864;4.346;2023-04-03T18:01:43;9.60;80.20
31521;DHT22;18130;50.864;4.346;2023-04-03T18:04:10;9.60;80.10
31521;DHT22;18130;50.864;4.346;2023-04-03T18:06:50;9.50;80.00
31521;DHT22;18130;50.864;4.346;2023-04-03T18:09:23;9.40;79.80
31521;DHT22;18130;50.864;4.346;2023-04-03T18:11:50;9.30;80.20
31521;DHT22;18130;50.864;4.346;2023-04-03T18:14:21;9.30;80.80
31521;DHT22;18130;50.864;4.346;2023-04-03T18:16:59;9.30;80.80
31521;DHT22;18130;50.864;4.346;2023-04-03T18:19:25;9.30;80.90
31521;DHT22;18130;50.864;4.346;2023-04-03T18:21:55;9.20;81.30
31521;DHT22;18130;50.864;4.346;2023-04-03T18:24:22;9.20;81.50
31521;DHT22;18130;50.864;4.346;2023-04-03T18:26:58;9.10;81.80
31521;DHT22;18130;50.864;4.346;2023-04-03T18:29:25;9.20;82.20
31521;DHT22;18130;50.864;4.346;2023-04-03T18:31:53;9.20;82.70
31521;DHT22;18130;50.864;4.346;2023-04-03T18:34:20;9.10;84.10
31521;DHT22;18130;50.864;4.346;2023-04-03T18:36:48;9.00;85.00
31521;DHT22;18130;50.864;4.346;2023-04-03T18:39:14;8.90;85.80
31521;DHT22;18130;50.864;4.346;2023-04-03T18:41:40;8.90;86.50
31521;DHT22;18130;50.864;4.346;2023-04-03T18:44:10;8.80;87.10
31521;DHT22;18130;50.864;4.346;2023-04-03T18:46:37;8.80;87.90
31521;DHT22;18130;50.864;4.346;2023-04-03T18:49:03;8.80;87.40
31521;DHT22;18130;50.864;4.346;2023-04-03T18:51:28;8.70;87.90
31521;DHT22;18130;50.864;4.346;2023-04-03T18:53:54;8.60;88.30
31521;DHT22;18130;50.864;4.346;2023-04-03T18:56:21;8.60;88.60
31521;DHT22;18130;50.864;4.346;2023-04-03T18:58:47;8.50;88.70
31521;DHT22;18130;50.864;4.346;2023-04-03T19:01:16;8.50;89.10
31521;DHT22;18130;50.864;4.346;2023-04-03T19:03:45;8.50;89.20
31521;DHT22;18130;50.864;4.346;2023-04-03T19:06:11;8.50;89.00
31521;DHT22;18130;50.864;4.346;2023-04-03T19:08:37;8.50;89.40
31521;DHT22;18130;50.864;4.346;2023-04-03T19:11:03;8.40;89.80
31521;DHT22;18130;50.864;4.346;2023-04-03T19:13:29;8.30;89.90
31521;DHT22;18130;50.864;4.346;2023-04-03T19:15:56;8.40;90.10
31521;DHT22;18130;50.864;4.346;2023-04-03T19:18:25;8.40;90.30
31521;DHT22;18130;50.864;4.346;2023-04-03T19:20:53;8.20;90.30
31521;DHT22;18130;50.864;4.346;2023-04-03T19:23:20;8.20;90.50
31521;DHT22;18130;50.864;4.346;2023-04-03T19:25:45;8.20;90.80
31521;DHT22;18130;50.864;4.346;2023-04-03T19:28:12;8.10;90.90
31521;DHT22;18130;50.864;4.346;2023-04-03T19:30:39;8.10;91.10
31521;DHT22;18130;50.864;4.346;2023-04-03T19:33:05;8.00;90.90
31521;DHT22;18130;50.864;4.346;2023-04-03T19:35:31;8.00;91.10
31521;DHT22;18130;50.864;4.346;2023-04-03T19:37:57;7.90;91.10
31521;DHT22;18130;50.864;4.346;2023-04-03T19:40:23;7.80;91.30
31521;DHT22;18130;50.864;4.346;2023-04-03T19:42:49;7.70;91.30
31521;DHT22;18130;50.864;4.346;2023-04-03T19:45:16;7.60;91.50
31521;DHT22;18130;50.864;4.346;2023-04-03T19:47:44;7.60;91.50
31521;DHT22;18130;50.864;4.346;2023-04-03T19:50:10;7.50;92.00
31521;DHT22;18130;50.864;4.346;2023-04-03T19:52:35;7.50;91.60
31521;DHT22;18130;50.864;4.346;2023-04-03T19:55:01;7.40;91.60
31521;DHT22;18130;50.864;4.346;2023-04-03T19:57:27;7.30;91.50
31521;DHT22;18130;50.864;4.346;2023-04-03T19:59:53;7.30;91.60
31521;DHT22;18130;50.864;4.346;2023-04-03T20:02:19;7.30;91.50
31521;DHT22;18130;50.864;4.346;2023-04-03T20:04:46;7.20;91.60
31521;DHT22;18130;50.864;4.346;2023-04-03T20:07:12;7.20;91.90
31521;DHT22;18130;50.864;4.346;2023-04-03T20:09:38;7.10;92.00
31521;DHT22;18130;50.864;4.346;2023-04-03T20:12:03;7.20;91.80
31521;DHT22;18130;50.864;4.346;2023-04-03T20:14:30;7.20;91.90
31521;DHT22;18130;50.864;4.346;2023-04-03T20:16:56;7.10;91.90
31521;DHT22;18130;50.864;4.346;2023-04-03T20:19:22;7.10;92.10
31521;DHT22;18130;50.864;4.346;2023-04-03T20:21:51;7.10;92.10
31521;DHT22;18130;50.864;4.346;2023-04-03T20:24:17;7.10;92.10
31521;DHT22;18130;50.864;4.346;2023-04-03T20:26:42;7.10;92.10
31521;DHT22;18130;50.864;4.346;2023-04-03T20:29:11;7.00;92.30
31521;DHT22;18130;50.864;4.346;2023-04-03T20:31:39;6.90;92.30
31521;DHT22;18130;50.864;4.346;2023-04-03T20:34:07;6.80;92.60
31521;DHT22;18130;50.864;4.346;2023-04-03T20:36:32;6.70;92.60
31521;DHT22;18130;50.864;4.346;2023-04-03T20:38:59;6.70;92.70
31521;DHT22;18130;50.864;4.346;2023-04-03T20:41:25;6.70;92.70
31521;DHT22;18130;50.864;4.346;2023-04-03T20:43:50;6.70;92.90
31521;DHT22;18130;50.864;4.346;2023-04-03T20:46:16;6.70;92.90
31521;DHT22;18130;50.864;4.346;2023-04-03T20:48:45;6.70;93.00
31521;DHT22;18130;50.864;4.346;2023-04-03T20:51:20;6.70;93.00
31521;DHT22;18130;50.864;4.346;2023-04-03T20:53:46;6.70;92.90
31521;DHT22;18130;50.864;4.346;2023-04-03T20:56:12;6.70;92.90
31521;DHT22;18130;50.864;4.346;2023-04-03T20:58:39;6.70;93.10
31521;DHT22;18130;50.864;4.346;2023-04-03T21:01:19;6.60;93.10
31521;DHT22;18130;50.864;4.346;2023-04-03T21:03:46;6.50;93.20
31521;DHT22;18130;50.864;4.346;2023-04-03T21:21:23;6.50;93.50
31521;DHT22;18130;50.864;4.346;2023-04-03T21:23:52;6.40;93.50
31521;DHT22;18130;50.864;4.346;2023-04-03T21:26:19;6.30;93.50
31521;DHT22;18130;50.864;4.346;2023-04-03T21:28:47;6.30;93.50
31521;DHT22;18130;50.864;4.346;2023-04-03T21:31:12;6.30;93.60
31521;DHT22;18130;50.864;4.346;2023-04-03T21:33:39;6.20;93.70
31521;DHT22;18130;50.864;4.346;2023-04-03T21:36:06;6.20;93.70
31521;DHT22;18130;50.864;4.346;2023-04-03T21:38:32;6.10;93.90
31521;DHT22;18130;50.864;4.346;2023-04-03T21:41:00;6.10;93.90
31521;DHT22;18130;50.864;4.346;2023-04-03T21:43:26;6.10;94.10
31521;DHT22;18130;50.864;4.346;2023-04-03T21:45:53;6.10;94.20
31521;DHT22;18130;50.864;4.346;2023-04-03T21:48:22;6.00;94.20
31521;DHT22;18130;50.864;4.346;2023-04-03T21:50:49;5.90;94.20
31521;DHT22;18130;50.864;4.346;2023-04-03T21:53:16;5.90;94.30
31521;DHT22;18130;50.864;4.346;2023-04-03T21:55:54;6.00;94.30
31521;DHT22;18130;50.864;4.346;2023-04-03T21:58:27;6.00;94.40
31521;DHT22;18130;50.864;4.346;2023-04-03T22:00:54;5.90;94.40
31521;DHT22;18130;50.864;4.346;2023-04-03T22:03:20;5.90;94.50
31521;DHT22;18130;50.864;4.346;2023-04-03T22:05:48;5.90;94.50
31521;DHT22;18130;50.864;4.346;2023-04-03T22:08:13;5.80;94.60
31521;DHT22;18130;50.864;4.346;2023-04-03T22:10:42;5.70;94.70
31521;DHT22;18130;50.864;4.346;2023-04-03T22:13:09;5.70;94.90
31521;DHT22;18130;50.864;4.346;2023-04-03T22:15:38;5.70;94.90
31521;DHT22;18130;50.864;4.346;2023-04-03T22:18:08;5.60;94.80
31521;DHT22;18130;50.864;4.346;2023-04-03T22:20:34;5.60;94.90
31521;DHT22;18130;50.864;4.346;2023-04-03T22:23:00;5.50;94.90
31521;DHT22;18130;50.864;4.346;2023-04-03T22:25:26;5.60;94.80
31521;DHT22;18130;50.864;4.346;2023-04-03T22:27:52;5.60;94.90
31521;DHT22;18130;50.864;4.346;2023-04-03T22:30:17;5.60;94.90
31521;DHT22;18130;50.864;4.346;2023-04-03T22:32:43;5.70;94.90
31521;DHT22;18130;50.864;4.346;2023-04-03T22:35:12;5.80;94.90
31521;DHT22;18130;50.864;4.346;2023-04-03T22:37:37;5.80;94.80
31521;DHT22;18130;50.864;4.346;2023-04-03T22:40:03;5.80;94.80
31521;DHT22;18130;50.864;4.346;2023-04-03T22:42:29;5.80;94.70
31521;DHT22;18130;50.864;4.346;2023-04-03T22:44:55;5.70;94.80
31521;DHT22;18130;50.864;4.346;2023-04-03T22:47:22;5.60;94.90
31521;DHT22;18130;50.864;4.346;2023-04-03T22:49:48;5.50;95.10
31521;DHT22;18130;50.864;4.346;2023-04-03T22:52:13;5.50;95.20
31521;DHT22;18130;50.864;4.346;2023-04-03T22:54:39;5.40;95.20
31521;DHT22;18130;50.864;4.346;2023-04-03T22:57:05;5.40;95.30
31521;DHT22;18130;50.864;4.346;2023-04-03T22:59:31;5.40;95.40
31521;DHT22;18130;50.864;4.346;2023-04-03T23:01:57;5.50;95.40
31521;DHT22;18130;50.864;4.346;2023-04-03T23:04:22;5.60;95.40
31521;DHT22;18130;50.864;4.346;2023-04-03T23:06:48;5.60;95.20
31521;DHT22;18130;50.864;4.346;2023-04-03T23:09:14;5.70;95.10
31521;DHT22;18130;50.864;4.346;2023-04-03T23:11:40;5.70;95.10
31521;DHT22;18130;50.864;4.346;2023-04-03T23:14:07;5.50;95.30
31521;DHT22;18130;50.864;4.346;2023-04-03T23:16:32;5.50;95.30
31521;DHT22;18130;50.864;4.346;2023-04-03T23:18:58;5.40;95.40
31521;DHT22;18130;50.864;4.346;2023-04-03T23:21:25;5.40;95.30
31521;DHT22;18130;50.864;4.346;2023-04-03T23:23:50;5.30;95.50
31521;DHT22;18130;50.864;4.346;2023-04-03T23:26:16;5.30;95.50
31521;DHT22;18130;50.864;4.346;2023-04-03T23:28:42;5.30;95.50
31521;DHT22;18130;50.864;4.346;2023-04-03T23:31:08;5.30;95.60
31521;DHT22;18130;50.864;4.346;2023-04-03T23:33:36;5.30;95.50
31521;DHT22;18130;50.864;4.346;2023-04-03T23:36:06;5.20;95.50
31521;DHT22;18130;50.864;4.346;2023-04-03T23:38:33;5.20;95.50
31521;DHT22;18130;50.864;4.346;2023-04-03T23:40:59;5.10;95.60
31521;DHT22;18130;50.864;4.346;2023-04-03T23:43:25;5.00;95.60
31521;DHT22;18130;50.864;4.346;2023-04-03T23:45:52;5.00;95.70
31521;DHT22;18130;50.864;4.346;2023-04-03T23:48:18;5.00;95.70
31521;DHT22;18130;50.864;4.346;2023-04-03T23:50:43;5.00;95.70
31521;DHT22;18130;50.864;4.346;2023-04-03T23:53:09;5.00;95.50
31521;DHT22;18130;50.864;4.346;2023-04-03T23:55:37;5.00;95.50
31521;DHT22;18130;50.864;4.346;2023-04-03T23:58:03;5.00;95.50
